sensor_id;sensor_type;location;lat;lon;timestamp;P1;durP1;ratioP1;P2;durP2;ratioP2
9473;SDS011;8865;47.636;7.692;2023-07-22T00:01:02;3.33;;;2.20;;
9473;SDS011;8865;47.636;7.692;2023-07-22T00:03:28;2.93;;;2.40;;
9473;SDS011;8865;47.636;7.692;2023-07-22T00:06:07;3.80;;;2.23;;
9473;SDS011;8865;47.636;7.692;2023-07-22T00:08:35;3.93;;;2.33;;
9473;SDS011;8865;47.636;7.692;2023-07-22T00:11:03;3.53;;;2.33;;
9473;SDS011;8865;47.636;7.692;2023-07-22T00:13:32;3.03;;;2.07;;
9473;SDS011;8865;47.636;7.692;2023-07-22T00:15:59;3.47;;;2.40;;
9473;SDS011;8865;47.636;7.692;2023-07-22T00:18:26;3.20;;;2.17;;
9473;SDS011;8865;47.636;7.692;2023-07-22T00:20:54;4.07;;;2.43;;
9473;SDS011;8865;47.636;7.692;2023-07-22T00:23:20;3.50;;;2.30;;
9473;SDS011;8865;47.636;7.692;2023-07-22T00:25:47;3.33;;;2.40;;
9473;SDS011;8865;47.636;7.692;2023-07-22T00:28:13;4.13;;;2.30;;
9473;SDS011;8865;47.636;7.692;2023-07-22T00:30:39;3.17;;;2.20;;
9473;SDS011;8865;47.636;7.692;2023-07-22T00:33:05;4.93;;;2.67;;
9473;SDS011;8865;47.636;7.692;2023-07-22T00:35:31;3.20;;;2.03;;
9473;SDS011;8865;47.636;7.692;2023-07-22T00:37:58;3.10;;;2.40;;
9473;SDS011;8865;47.636;7.692;2023-07-22T00:40:24;5.17;;;2.30;;
9473;SDS011;8865;47.636;7.692;2023-07-22T00:42:50;3.40;;;2.47;;
9473;SDS011;8865;47.636;7.692;2023-07-22T00:45:16;2.77;;;2.37;;
9473;SDS011;8865;47.636;7.692;2023-07-22T00:47:42;3.20;;;2.27;;
9473;SDS011;8865;47.636;7.692;2023-07-22T00:50:10;3.10;;;2.50;;
9473;SDS011;8865;47.636;7.692;2023-07-22T00:52:36;5.47;;;2.50;;
9473;SDS011;8865;47.636;7.692;2023-07-22T00:55:03;2.70;;;2.10;;
9473;SDS011;8865;47.636;7.692;2023-07-22T00:57:30;2.70;;;2.20;;
9473;SDS011;8865;47.636;7.692;2023-07-22T00:59:56;3.57;;;2.40;;
9473;SDS011;8865;47.636;7.692;2023-07-22T01:02:22;2.60;;;2.40;;
9473;SDS011;8865;47.636;7.692;2023-07-22T01:04:49;3.50;;;2.57;;
9473;SDS011;8865;47.636;7.692;2023-07-22T01:07:16;3.33;;;2.50;;
9473;SDS011;8865;47.636;7.692;2023-07-22T01:09:42;2.40;;;2.20;;
9473;SDS011;8865;47.636;7.692;2023-07-22T01:12:09;2.53;;;2.20;;
9473;SDS011;8865;47.636;7.692;2023-07-22T01:14:36;3.73;;;2.50;;
9473;SDS011;8865;47.636;7.692;2023-07-22T01:17:04;3.03;;;2.50;;
9473;SDS011;8865;47.636;7.692;2023-07-22T01:19:32;3.33;;;2.70;;
9473;SDS011;8865;47.636;7.692;2023-07-22T01:21:59;2.80;;;2.40;;
9473;SDS011;8865;47.636;7.692;2023-07-22T01:24:27;2.60;;;2.30;;
9473;SDS011;8865;47.636;7.692;2023-07-22T01:26:55;5.17;;;2.40;;
9473;SDS011;8865;47.636;7.692;2023-07-22T01:29:22;3.37;;;2.40;;
9473;SDS011;8865;47.636;7.692;2023-07-22T01:31:50;2.50;;;2.20;;
9473;SDS011;8865;47.636;7.692;2023-07-22T01:34:17;2.37;;;2.17;;
9473;SDS011;8865;47.636;7.692;2023-07-22T01:36:44;2.67;;;2.07;;
9473;SDS011;8865;47.636;7.692;2023-07-22T01:39:11;4.90;;;2.40;;
9473;SDS011;8865;47.636;7.692;2023-07-22T01:41:37;7.27;;;2.60;;
9473;SDS011;8865;47.636;7.692;2023-07-22T01:44:03;3.77;;;2.50;;
9473;SDS011;8865;47.636;7.692;2023-07-22T01:46:29;2.60;;;2.40;;
9473;SDS011;8865;47.636;7.692;2023-07-22T01:48:55;2.60;;;2.40;;
9473;SDS011;8865;47.636;7.692;2023-07-22T01:51:21;3.50;;;2.53;;
9473;SDS011;8865;47.636;7.692;2023-07-22T01:53:47;3.80;;;2.50;;
9473;SDS011;8865;47.636;7.692;2023-07-22T01:56:15;2.80;;;2.33;;
9473;SDS011;8865;47.636;7.692;2023-07-22T01:58:46;2.50;;;2.30;;
9473;SDS011;8865;47.636;7.692;2023-07-22T02:01:11;5.43;;;2.50;;
9473;SDS011;8865;47.636;7.692;2023-07-22T02:03:41;3.00;;;2.70;;
9473;SDS011;8865;47.636;7.692;2023-07-22T02:06:10;4.67;;;2.60;;
9473;SDS011;8865;47.636;7.692;2023-07-22T02:08:36;2.60;;;2.40;;
9473;SDS011;8865;47.636;7.692;2023-07-22T02:11:04;3.33;;;2.20;;
9473;SDS011;8865;47.636;7.692;2023-07-22T02:13:32;5.17;;;2.57;;
9473;SDS011;8865;47.636;7.692;2023-07-22T02:15:59;2.90;;;2.50;;
9473;SDS011;8865;47.636;7.692;2023-07-22T02:18:26;4.13;;;2.60;;
9473;SDS011;8865;47.636;7.692;2023-07-22T02:20:53;2.73;;;2.27;;
9473;SDS011;8865;47.636;7.692;2023-07-22T02:23:20;3.90;;;2.60;;
9473;SDS011;8865;47.636;7.692;2023-07-22T02:25:49;3.23;;;2.60;;
9473;SDS011;8865;47.636;7.692;2023-07-22T02:28:16;4.10;;;2.60;;
9473;SDS011;8865;47.636;7.692;2023-07-22T02:30:47;4.20;;;2.53;;
9473;SDS011;8865;47.636;7.692;2023-07-22T02:33:18;3.57;;;2.40;;
9473;SDS011;8865;47.636;7.692;2023-07-22T02:35:44;2.90;;;2.30;;
9473;SDS011;8865;47.636;7.692;2023-07-22T02:38:10;3.20;;;2.50;;
9473;SDS011;8865;47.636;7.692;2023-07-22T02:40:37;3.80;;;2.57;;
9473;SDS011;8865;47.636;7.692;2023-07-22T02:43:03;2.83;;;2.30;;
9473;SDS011;8865;47.636;7.692;2023-07-22T02:45:29;3.43;;;2.40;;
9473;SDS011;8865;47.636;7.692;2023-07-22T02:47:55;3.30;;;2.50;;
9473;SDS011;8865;47.636;7.692;2023-07-22T02:50:21;2.97;;;2.37;;
9473;SDS011;8865;47.636;7.692;2023-07-22T02:52:47;3.00;;;2.67;;
9473;SDS011;8865;47.636;7.692;2023-07-22T02:55:14;2.90;;;2.40;;
9473;SDS011;8865;47.636;7.692;2023-07-22T02:57:44;2.47;;;2.27;;
9473;SDS011;8865;47.636;7.692;2023-07-22T03:00:15;3.20;;;2.40;;
9473;SDS011;8865;47.636;7.692;2023-07-22T03:02:51;3.53;;;2.70;;
9473;SDS011;8865;47.636;7.692;2023-07-22T03:05:18;4.47;;;2.60;;
9473;SDS011;8865;47.636;7.692;2023-07-22T03:07:45;2.90;;;2.50;;
9473;SDS011;8865;47.636;7.692;2023-07-22T03:10:11;4.13;;;2.60;;
9473;SDS011;8865;47.636;7.692;2023-07-22T03:12:37;4.10;;;2.53;;
9473;SDS011;8865;47.636;7.692;2023-07-22T03:15:03;4.13;;;2.60;;
9473;SDS011;8865;47.636;7.692;2023-07-22T03:17:30;3.93;;;2.50;;
9473;SDS011;8865;47.636;7.692;2023-07-22T03:19:56;4.70;;;2.47;;
9473;SDS011;8865;47.636;7.692;2023-07-22T03:22:22;3.50;;;2.40;;
9473;SDS011;8865;47.636;7.692;2023-07-22T03:24:48;2.43;;;2.10;;
9473;SDS011;8865;47.636;7.692;2023-07-22T03:27:14;3.43;;;2.60;;
9473;SDS011;8865;47.636;7.692;2023-07-22T03:29:42;3.43;;;2.80;;
9473;SDS011;8865;47.636;7.692;2023-07-22T03:32:08;4.47;;;2.50;;
9473;SDS011;8865;47.636;7.692;2023-07-22T03:34:34;4.57;;;2.77;;
9473;SDS011;8865;47.636;7.692;2023-07-22T03:37:01;4.17;;;2.67;;
9473;SDS011;8865;47.636;7.692;2023-07-22T03:39:27;3.23;;;2.43;;
9473;SDS011;8865;47.636;7.692;2023-07-22T03:41:53;5.87;;;2.70;;
9473;SDS011;8865;47.636;7.692;2023-07-22T03:44:18;3.00;;;2.60;;
9473;SDS011;8865;47.636;7.692;2023-07-22T03:46:44;2.90;;;2.60;;
9473;SDS011;8865;47.636;7.692;2023-07-22T03:49:10;4.57;;;2.77;;
9473;SDS011;8865;47.636;7.692;2023-07-22T03:51:36;3.37;;;2.40;;
9473;SDS011;8865;47.636;7.692;2023-07-22T03:54:02;3.97;;;3.00;;
9473;SDS011;8865;47.636;7.692;2023-07-22T03:56:28;3.20;;;2.50;;
9473;SDS011;8865;47.636;7.692;2023-07-22T03:58:54;3.07;;;2.60;;
9473;SDS011;8865;47.636;7.692;2023-07-22T04:01:20;3.63;;;2.30;;
9473;SDS011;8865;47.636;7.692;2023-07-22T04:03:46;2.97;;;2.50;;
9473;SDS011;8865;47.636;7.692;2023-07-22T04:06:12;3.43;;;2.50;;
9473;SDS011;8865;47.636;7.692;2023-07-22T04:08:38;4.10;;;2.53;;
9473;SDS011;8865;47.636;7.692;2023-07-22T04:11:04;4.63;;;2.30;;
9473;SDS011;8865;47.636;7.692;2023-07-22T04:13:30;3.17;;;2.40;;
9473;SDS011;8865;47.636;7.692;2023-07-22T04:15:56;3.93;;;2.53;;
9473;SDS011;8865;47.636;7.692;2023-07-22T04:18:22;3.60;;;2.60;;
9473;SDS011;8865;47.636;7.692;2023-07-22T04:20:51;3.73;;;2.70;;
9473;SDS011;8865;47.636;7.692;2023-07-22T04:23:21;2.63;;;2.43;;
9473;SDS011;8865;47.636;7.692;2023-07-22T04:25:47;2.67;;;2.40;;
9473;SDS011;8865;47.636;7.692;2023-07-22T04:28:13;2.50;;;2.30;;
9473;SDS011;8865;47.636;7.692;2023-07-22T04:30:39;3.00;;;2.60;;
9473;SDS011;8865;47.636;7.692;2023-07-22T04:33:05;2.87;;;2.57;;
9473;SDS011;8865;47.636;7.692;2023-07-22T04:35:33;3.00;;;2.50;;
9473;SDS011;8865;47.636;7.692;2023-07-22T04:38:01;2.70;;;2.37;;
9473;SDS011;8865;47.636;7.692;2023-07-22T04:40:28;3.00;;;2.70;;
9473;SDS011;8865;47.636;7.692;2023-07-22T04:42:56;2.93;;;2.63;;
9473;SDS011;8865;47.636;7.692;2023-07-22T04:45:22;3.43;;;2.57;;
9473;SDS011;8865;47.636;7.692;2023-07-22T04:47:51;3.60;;;2.33;;
9473;SDS011;8865;47.636;7.692;2023-07-22T04:50:18;3.27;;;2.40;;
9473;SDS011;8865;47.636;7.692;2023-07-22T04:52:44;4.77;;;2.80;;
9473;SDS011;8865;47.636;7.692;2023-07-22T04:55:12;4.47;;;2.57;;
9473;SDS011;8865;47.636;7.692;2023-07-22T04:57:39;4.10;;;2.60;;
9473;SDS011;8865;47.636;7.692;2023-07-22T05:00:07;2.87;;;2.40;;
9473;SDS011;8865;47.636;7.692;2023-07-22T05:02:39;2.63;;;2.10;;
9473;SDS011;8865;47.636;7.692;2023-07-22T05:05:05;4.60;;;2.20;;
9473;SDS011;8865;47.636;7.692;2023-07-22T05:07:32;2.90;;;2.60;;
9473;SDS011;8865;47.636;7.692;2023-07-22T05:09:58;2.87;;;2.43;;
9473;SDS011;8865;47.636;7.692;2023-07-22T05:12:24;3.40;;;2.40;;
9473;SDS011;8865;47.636;7.692;2023-07-22T05:14:50;2.27;;;2.03;;
9473;SDS011;8865;47.636;7.692;2023-07-22T05:17:16;3.00;;;2.47;;
9473;SDS011;8865;47.636;7.692;2023-07-22T05:19:42;3.30;;;2.70;;
9473;SDS011;8865;47.636;7.692;2023-07-22T05:22:08;3.37;;;2.80;;
9473;SDS011;8865;47.636;7.692;2023-07-22T05:24:34;3.10;;;2.60;;
9473;SDS011;8865;47.636;7.692;2023-07-22T05:27:00;3.43;;;2.70;;
9473;SDS011;8865;47.636;7.692;2023-07-22T05:29:26;3.23;;;2.47;;
9473;SDS011;8865;47.636;7.692;2023-07-22T05:31:52;4.47;;;2.80;;
9473;SDS011;8865;47.636;7.692;2023-07-22T05:34:18;2.83;;;2.43;;
9473;SDS011;8865;47.636;7.692;2023-07-22T05:36:44;4.50;;;2.30;;
9473;SDS011;8865;47.636;7.692;2023-07-22T05:39:10;2.87;;;2.50;;
9473;SDS011;8865;47.636;7.692;2023-07-22T05:41:36;4.50;;;2.60;;
9473;SDS011;8865;47.636;7.692;2023-07-22T05:44:02;4.27;;;2.50;;
9473;SDS011;8865;47.636;7.692;2023-07-22T05:46:28;2.60;;;2.27;;
9473;SDS011;8865;47.636;7.692;2023-07-22T05:48:54;2.93;;;2.43;;
9473;SDS011;8865;47.636;7.692;2023-07-22T05:51:20;3.73;;;2.47;;
9473;SDS011;8865;47.636;7.692;2023-07-22T05:53:46;2.53;;;2.33;;
9473;SDS011;8865;47.636;7.692;2023-07-22T05:56:12;3.73;;;2.50;;
9473;SDS011;8865;47.636;7.692;2023-07-22T05:58:38;3.53;;;2.40;;
9473;SDS011;8865;47.636;7.692;2023-07-22T06:01:04;2.80;;;2.50;;
9473;SDS011;8865;47.636;7.692;2023-07-22T06:03:30;3.17;;;2.60;;
9473;SDS011;8865;47.636;7.692;2023-07-22T06:05:56;3.17;;;2.17;;
9473;SDS011;8865;47.636;7.692;2023-07-22T06:08:21;2.60;;;2.40;;
9473;SDS011;8865;47.636;7.692;2023-07-22T06:10:47;2.80;;;2.47;;
9473;SDS011;8865;47.636;7.692;2023-07-22T06:13:13;2.77;;;2.20;;
9473;SDS011;8865;47.636;7.692;2023-07-22T06:15:39;3.57;;;2.50;;
9473;SDS011;8865;47.636;7.692;2023-07-22T06:18:05;3.60;;;2.30;;
9473;SDS011;8865;47.636;7.692;2023-07-22T06:20:34;2.43;;;2.00;;
9473;SDS011;8865;47.636;7.692;2023-07-22T06:23:01;2.20;;;2.00;;
9473;SDS011;8865;47.636;7.692;2023-07-22T06:25:28;2.67;;;2.30;;
9473;SDS011;8865;47.636;7.692;2023-07-22T06:27:54;2.73;;;2.40;;
9473;SDS011;8865;47.636;7.692;2023-07-22T06:30:20;4.97;;;3.47;;
9473;SDS011;8865;47.636;7.692;2023-07-22T06:32:46;4.13;;;2.40;;
9473;SDS011;8865;47.636;7.692;2023-07-22T06:35:12;4.80;;;2.17;;
9473;SDS011;8865;47.636;7.692;2023-07-22T06:37:38;5.90;;;3.97;;
9473;SDS011;8865;47.636;7.692;2023-07-22T06:40:05;3.13;;;2.83;;
9473;SDS011;8865;47.636;7.692;2023-07-22T06:42:31;2.30;;;2.10;;
9473;SDS011;8865;47.636;7.692;2023-07-22T06:44:57;4.10;;;2.30;;
9473;SDS011;8865;47.636;7.692;2023-07-22T06:47:23;13.33;;;12.33;;
9473;SDS011;8865;47.636;7.692;2023-07-22T06:49:49;68.13;;;50.97;;
9473;SDS011;8865;47.636;7.692;2023-07-22T06:52:16;59.57;;;45.60;;
9473;SDS011;8865;47.636;7.692;2023-07-22T06:54:42;63.60;;;50.57;;
9473;SDS011;8865;47.636;7.692;2023-07-22T06:57:08;12.37;;;8.97;;
9473;SDS011;8865;47.636;7.692;2023-07-22T06:59:34;4.47;;;2.93;;
9473;SDS011;8865;47.636;7.692;2023-07-22T07:02:01;3.70;;;2.57;;
9473;SDS011;8865;47.636;7.692;2023-07-22T07:04:27;2.80;;;2.50;;
9473;SDS011;8865;47.636;7.692;2023-07-22T07:06:53;3.37;;;2.30;;
9473;SDS011;8865;47.636;7.692;2023-07-22T07:09:19;2.50;;;2.27;;
9473;SDS011;8865;47.636;7.692;2023-07-22T07:11:45;4.43;;;2.20;;
9473;SDS011;8865;47.636;7.692;2023-07-22T07:14:11;3.10;;;2.30;;
9473;SDS011;8865;47.636;7.692;2023-07-22T07:16:38;3.23;;;2.30;;
9473;SDS011;8865;47.636;7.692;2023-07-22T07:19:04;2.53;;;2.33;;
9473;SDS011;8865;47.636;7.692;2023-07-22T07:21:31;3.13;;;2.20;;
9473;SDS011;8865;47.636;7.692;2023-07-22T07:23:57;2.13;;;1.93;;
9473;SDS011;8865;47.636;7.692;2023-07-22T07:26:23;2.67;;;2.30;;
9473;SDS011;8865;47.636;7.692;2023-07-22T07:28:51;3.67;;;2.30;;
9473;SDS011;8865;47.636;7.692;2023-07-22T07:31:17;2.63;;;2.33;;
9473;SDS011;8865;47.636;7.692;2023-07-22T07:33:43;2.50;;;2.20;;
9473;SDS011;8865;47.636;7.692;2023-07-22T07:36:09;2.80;;;2.10;;
9473;SDS011;8865;47.636;7.692;2023-07-22T07:38:35;2.30;;;2.10;;
9473;SDS011;8865;47.636;7.692;2023-07-22T07:41:02;2.37;;;2.03;;
9473;SDS011;8865;47.636;7.692;2023-07-22T07:43:30;2.47;;;2.13;;
9473;SDS011;8865;47.636;7.692;2023-07-22T07:48:57;3.27;;;2.37;;
9473;SDS011;8865;47.636;7.692;2023-07-22T07:51:27;3.03;;;2.03;;
9473;SDS011;8865;47.636;7.692;2023-07-22T07:53:55;2.57;;;2.17;;
9473;SDS011;8865;47.636;7.692;2023-07-22T07:56:22;2.63;;;2.43;;
9473;SDS011;8865;47.636;7.692;2023-07-22T07:58:49;3.03;;;1.90;;
9473;SDS011;8865;47.636;7.692;2023-07-22T08:01:16;4.37;;;2.73;;
9473;SDS011;8865;47.636;7.692;2023-07-22T08:03:42;25.63;;;21.23;;
9473;SDS011;8865;47.636;7.692;2023-07-22T08:06:09;7.97;;;6.50;;
9473;SDS011;8865;47.636;7.692;2023-07-22T08:08:36;3.10;;;2.80;;
9473;SDS011;8865;47.636;7.692;2023-07-22T08:11:07;3.43;;;2.20;;
9473;SDS011;8865;47.636;7.692;2023-07-22T08:13:34;2.50;;;2.30;;
9473;SDS011;8865;47.636;7.692;2023-07-22T08:16:02;3.00;;;2.23;;
9473;SDS011;8865;47.636;7.692;2023-07-22T08:18:30;2.40;;;2.20;;
9473;SDS011;8865;47.636;7.692;2023-07-22T08:20:56;2.13;;;1.90;;
9473;SDS011;8865;47.636;7.692;2023-07-22T08:23:23;2.47;;;2.10;;
9473;SDS011;8865;47.636;7.692;2023-07-22T08:25:49;2.53;;;1.90;;
9473;SDS011;8865;47.636;7.692;2023-07-22T08:28:15;2.43;;;2.23;;
9473;SDS011;8865;47.636;7.692;2023-07-22T08:30:41;3.00;;;2.70;;
9473;SDS011;8865;47.636;7.692;2023-07-22T08:33:08;9.90;;;8.90;;
9473;SDS011;8865;47.636;7.692;2023-07-22T08:35:38;3.67;;;2.67;;
9473;SDS011;8865;47.636;7.692;2023-07-22T08:38:05;4.67;;;3.57;;
9473;SDS011;8865;47.636;7.692;2023-07-22T08:40:35;26.17;;;20.40;;
9473;SDS011;8865;47.636;7.692;2023-07-22T08:43:03;10.57;;;6.40;;
9473;SDS011;8865;47.636;7.692;2023-07-22T08:45:30;3.10;;;2.53;;
9473;SDS011;8865;47.636;7.692;2023-07-22T08:48:08;4.07;;;2.47;;
9473;SDS011;8865;47.636;7.692;2023-07-22T08:50:54;3.17;;;2.30;;
9473;SDS011;8865;47.636;7.692;2023-07-22T08:53:23;2.23;;;1.97;;
9473;SDS011;8865;47.636;7.692;2023-07-22T08:55:51;4.03;;;2.30;;
9473;SDS011;8865;47.636;7.692;2023-07-22T08:58:17;4.50;;;2.93;;
9473;SDS011;8865;47.636;7.692;2023-07-22T09:00:43;4.10;;;2.57;;
9473;SDS011;8865;47.636;7.692;2023-07-22T09:03:10;2.80;;;2.37;;
9473;SDS011;8865;47.636;7.692;2023-07-22T09:05:37;1.70;;;1.60;;
9473;SDS011;8865;47.636;7.692;2023-07-22T09:08:06;1.83;;;1.70;;
9473;SDS011;8865;47.636;7.692;2023-07-22T09:10:33;1.80;;;1.60;;
9473;SDS011;8865;47.636;7.692;2023-07-22T09:13:00;2.10;;;1.50;;
9473;SDS011;8865;47.636;7.692;2023-07-22T09:15:26;1.50;;;1.40;;
9473;SDS011;8865;47.636;7.692;2023-07-22T09:17:53;2.07;;;1.43;;
9473;SDS011;8865;47.636;7.692;2023-07-22T09:20:19;1.50;;;1.40;;
9473;SDS011;8865;47.636;7.692;2023-07-22T09:22:46;1.60;;;1.50;;
9473;SDS011;8865;47.636;7.692;2023-07-22T09:25:19;1.97;;;1.80;;
9473;SDS011;8865;47.636;7.692;2023-07-22T09:27:51;5.95;;;5.35;;
9473;SDS011;8865;47.636;7.692;2023-07-22T09:30:25;2.20;;;1.70;;
9473;SDS011;8865;47.636;7.692;2023-07-22T09:32:52;2.43;;;1.97;;
9473;SDS011;8865;47.636;7.692;2023-07-22T09:35:19;2.77;;;1.70;;
9473;SDS011;8865;47.636;7.692;2023-07-22T09:37:46;3.92;;;1.70;;
9473;SDS011;8865;47.636;7.692;2023-07-22T09:42:48;2.33;;;1.50;;
9473;SDS011;8865;47.636;7.692;2023-07-22T09:45:19;2.00;;;1.80;;
9473;SDS011;8865;47.636;7.692;2023-07-22T09:47:47;2.40;;;2.20;;
9473;SDS011;8865;47.636;7.692;2023-07-22T09:50:16;1.93;;;1.70;;
9473;SDS011;8865;47.636;7.692;2023-07-22T09:52:50;1.90;;;1.70;;
9473;SDS011;8865;47.636;7.692;2023-07-22T09:55:19;2.70;;;1.50;;
9473;SDS011;8865;47.636;7.692;2023-07-22T09:57:48;1.67;;;1.30;;
9473;SDS011;8865;47.636;7.692;2023-07-22T10:00:16;5.00;;;4.50;;
9473;SDS011;8865;47.636;7.692;2023-07-22T10:02:45;3.03;;;1.53;;
9473;SDS011;8865;47.636;7.692;2023-07-22T10:05:15;3.08;;;1.50;;
9473;SDS011;8865;47.636;7.692;2023-07-22T10:07:47;2.20;;;1.60;;
9473;SDS011;8865;47.636;7.692;2023-07-22T10:10:19;1.40;;;1.30;;
9473;SDS011;8865;47.636;7.692;2023-07-22T10:12:46;2.75;;;1.50;;
9473;SDS011;8865;47.636;7.692;2023-07-22T10:15:14;3.53;;;1.55;;
9473;SDS011;8865;47.636;7.692;2023-07-22T10:17:41;2.17;;;1.45;;
9473;SDS011;8865;47.636;7.692;2023-07-22T10:20:09;2.88;;;1.60;;
9473;SDS011;8865;47.636;7.692;2023-07-22T10:22:42;2.25;;;1.50;;
9473;SDS011;8865;47.636;7.692;2023-07-22T10:25:12;1.75;;;1.30;;
9473;SDS011;8865;47.636;7.692;2023-07-22T10:27:41;1.67;;;1.38;;
9473;SDS011;8865;47.636;7.692;2023-07-22T10:30:08;2.97;;;2.67;;
9473;SDS011;8865;47.636;7.692;2023-07-22T10:32:41;2.53;;;2.13;;
9473;SDS011;8865;47.636;7.692;2023-07-22T10:35:09;2.20;;;1.40;;
9473;SDS011;8865;47.636;7.692;2023-07-22T10:37:45;1.30;;;1.20;;
9473;SDS011;8865;47.636;7.692;2023-07-22T10:45:29;1.30;;;1.20;;
9473;SDS011;8865;47.636;7.692;2023-07-22T10:48:01;2.13;;;1.77;;
9473;SDS011;8865;47.636;7.692;2023-07-22T11:11:53;1.42;;;1.33;;
9473;SDS011;8865;47.636;7.692;2023-07-22T11:14:24;1.45;;;1.35;;
9473;SDS011;8865;47.636;7.692;2023-07-22T11:16:51;2.78;;;1.27;;
9473;SDS011;8865;47.636;7.692;2023-07-22T11:19:22;2.53;;;1.20;;
9473;SDS011;8865;47.636;7.692;2023-07-22T11:21:50;2.08;;;1.17;;
9473;SDS011;8865;47.636;7.692;2023-07-22T11:24:17;1.30;;;1.20;;
9473;SDS011;8865;47.636;7.692;2023-07-22T11:26:44;1.40;;;1.02;;
9473;SDS011;8865;47.636;7.692;2023-07-22T11:29:12;1.70;;;1.10;;
9473;SDS011;8865;47.636;7.692;2023-07-22T11:31:38;1.83;;;1.45;;
9473;SDS011;8865;47.636;7.692;2023-07-22T11:34:08;2.15;;;1.30;;
9473;SDS011;8865;47.636;7.692;2023-07-22T11:36:35;2.08;;;1.48;;
9473;SDS011;8865;47.636;7.692;2023-07-22T11:39:05;1.45;;;1.35;;
9473;SDS011;8865;47.636;7.692;2023-07-22T11:41:32;1.05;;;1.05;;
9473;SDS011;8865;47.636;7.692;2023-07-22T11:43:59;1.52;;;1.20;;
9473;SDS011;8865;47.636;7.692;2023-07-22T11:46:27;1.60;;;1.40;;
9473;SDS011;8865;47.636;7.692;2023-07-22T11:48:54;1.50;;;1.40;;
9473;SDS011;8865;47.636;7.692;2023-07-22T11:51:22;1.83;;;1.50;;
9473;SDS011;8865;47.636;7.692;2023-07-22T11:53:51;1.50;;;1.40;;
9473;SDS011;8865;47.636;7.692;2023-07-22T11:56:22;1.70;;;1.42;;
9473;SDS011;8865;47.636;7.692;2023-07-22T11:58:50;1.40;;;1.30;;
9473;SDS011;8865;47.636;7.692;2023-07-22T12:01:17;5.63;;;1.70;;
9473;SDS011;8865;47.636;7.692;2023-07-22T12:03:43;1.50;;;1.40;;
9473;SDS011;8865;47.636;7.692;2023-07-22T12:06:10;1.58;;;1.42;;
9473;SDS011;8865;47.636;7.692;2023-07-22T12:08:37;2.08;;;1.50;;
9473;SDS011;8865;47.636;7.692;2023-07-22T12:11:15;1.52;;;1.42;;
9473;SDS011;8865;47.636;7.692;2023-07-22T12:13:45;1.63;;;1.52;;
9473;SDS011;8865;47.636;7.692;2023-07-22T12:16:22;1.48;;;1.38;;
9473;SDS011;8865;47.636;7.692;2023-07-22T12:18:54;1.50;;;1.30;;
9473;SDS011;8865;47.636;7.692;2023-07-22T12:21:21;1.38;;;1.27;;
9473;SDS011;8865;47.636;7.692;2023-07-22T12:23:47;1.63;;;1.52;;
9473;SDS011;8865;47.636;7.692;2023-07-22T12:26:13;1.63;;;1.52;;
9473;SDS011;8865;47.636;7.692;2023-07-22T12:28:39;1.55;;;1.45;;
9473;SDS011;8865;47.636;7.692;2023-07-22T12:31:05;1.45;;;1.35;;
9473;SDS011;8865;47.636;7.692;2023-07-22T12:33:31;1.60;;;1.50;;
9473;SDS011;8865;47.636;7.692;2023-07-22T12:35:57;1.85;;;1.50;;
9473;SDS011;8865;47.636;7.692;2023-07-22T12:38:23;1.88;;;1.70;;
9473;SDS011;8865;47.636;7.692;2023-07-22T12:40:49;1.85;;;1.60;;
9473;SDS011;8865;47.636;7.692;2023-07-22T12:43:15;1.70;;;1.60;;
9473;SDS011;8865;47.636;7.692;2023-07-22T12:45:41;2.33;;;1.83;;
9473;SDS011;8865;47.636;7.692;2023-07-22T12:48:08;1.40;;;1.30;;
9473;SDS011;8865;47.636;7.692;2023-07-22T12:50:35;2.25;;;2.03;;
9473;SDS011;8865;47.636;7.692;2023-07-22T12:53:01;2.08;;;1.75;;
9473;SDS011;8865;47.636;7.692;2023-07-22T12:55:28;1.40;;;1.30;;
9473;SDS011;8865;47.636;7.692;2023-07-22T12:57:54;2.33;;;1.52;;
9473;SDS011;8865;47.636;7.692;2023-07-22T13:00:20;2.65;;;1.20;;
9473;SDS011;8865;47.636;7.692;2023-07-22T13:02:47;1.70;;;1.35;;
9473;SDS011;8865;47.636;7.692;2023-07-22T13:05:13;2.05;;;1.60;;
9473;SDS011;8865;47.636;7.692;2023-07-22T13:07:40;1.65;;;1.55;;
9473;SDS011;8865;47.636;7.692;2023-07-22T13:10:06;1.52;;;1.42;;
9473;SDS011;8865;47.636;7.692;2023-07-22T13:12:36;1.92;;;1.42;;
9473;SDS011;8865;47.636;7.692;2023-07-22T13:15:03;1.67;;;1.38;;
9473;SDS011;8865;47.636;7.692;2023-07-22T13:17:31;8.70;;;8.00;;
9473;SDS011;8865;47.636;7.692;2023-07-22T13:19:57;3.20;;;2.90;;
9473;SDS011;8865;47.636;7.692;2023-07-22T13:22:23;1.60;;;1.50;;
9473;SDS011;8865;47.636;7.692;2023-07-22T13:24:49;2.03;;;1.50;;
9473;SDS011;8865;47.636;7.692;2023-07-22T13:27:16;1.70;;;1.60;;
9473;SDS011;8865;47.636;7.692;2023-07-22T13:29:42;1.52;;;1.42;;
9473;SDS011;8865;47.636;7.692;2023-07-22T13:32:08;3.53;;;1.45;;
9473;SDS011;8865;47.636;7.692;2023-07-22T13:34:34;1.40;;;1.30;;
9473;SDS011;8865;47.636;7.692;2023-07-22T13:37:01;1.95;;;1.67;;
9473;SDS011;8865;47.636;7.692;2023-07-22T13:39:28;1.90;;;1.30;;
9473;SDS011;8865;47.636;7.692;2023-07-22T13:41:54;1.55;;;1.33;;
9473;SDS011;8865;47.636;7.692;2023-07-22T13:44:20;1.30;;;1.20;;
9473;SDS011;8865;47.636;7.692;2023-07-22T13:46:47;2.33;;;1.67;;
9473;SDS011;8865;47.636;7.692;2023-07-22T13:49:13;1.33;;;1.23;;
9473;SDS011;8865;47.636;7.692;2023-07-22T13:51:40;3.55;;;1.40;;
9473;SDS011;8865;47.636;7.692;2023-07-22T13:54:06;1.65;;;1.55;;
9473;SDS011;8865;47.636;7.692;2023-07-22T13:56:32;2.67;;;1.48;;
9473;SDS011;8865;47.636;7.692;2023-07-22T13:58:59;1.40;;;1.30;;
9473;SDS011;8865;47.636;7.692;2023-07-22T14:01:26;1.30;;;1.20;;
9473;SDS011;8865;47.636;7.692;2023-07-22T14:03:53;2.63;;;1.52;;
9473;SDS011;8865;47.636;7.692;2023-07-22T14:06:19;1.55;;;1.33;;
9473;SDS011;8865;47.636;7.692;2023-07-22T14:08:45;1.58;;;1.38;;
9473;SDS011;8865;47.636;7.692;2023-07-22T14:11:11;1.80;;;1.55;;
9473;SDS011;8865;47.636;7.692;2023-07-22T14:13:38;1.40;;;1.30;;
9473;SDS011;8865;47.636;7.692;2023-07-22T14:16:04;1.60;;;1.50;;
9473;SDS011;8865;47.636;7.692;2023-07-22T14:18:30;1.30;;;1.20;;
9473;SDS011;8865;47.636;7.692;2023-07-22T14:20:56;1.92;;;1.60;;
9473;SDS011;8865;47.636;7.692;2023-07-22T14:23:22;1.33;;;1.20;;
9473;SDS011;8865;47.636;7.692;2023-07-22T14:25:48;1.17;;;1.08;;
9473;SDS011;8865;47.636;7.692;2023-07-22T14:28:15;1.48;;;1.38;;
9473;SDS011;8865;47.636;7.692;2023-07-22T14:30:41;1.52;;;1.20;;
9473;SDS011;8865;47.636;7.692;2023-07-22T14:33:07;1.27;;;1.17;;
9473;SDS011;8865;47.636;7.692;2023-07-22T14:35:33;2.15;;;1.23;;
9473;SDS011;8865;47.636;7.692;2023-07-22T14:38:00;1.63;;;1.48;;
9473;SDS011;8865;47.636;7.692;2023-07-22T14:40:26;2.80;;;1.42;;
9473;SDS011;8865;47.636;7.692;2023-07-22T14:42:52;1.48;;;1.10;;
9473;SDS011;8865;47.636;7.692;2023-07-22T14:45:19;1.20;;;1.10;;
9473;SDS011;8865;47.636;7.692;2023-07-22T14:47:44;1.75;;;1.25;;
9473;SDS011;8865;47.636;7.692;2023-07-22T14:50:11;2.67;;;1.50;;
9473;SDS011;8865;47.636;7.692;2023-07-22T14:52:37;3.28;;;1.73;;
9473;SDS011;8865;47.636;7.692;2023-07-22T14:55:03;2.53;;;1.30;;
9473;SDS011;8865;47.636;7.692;2023-07-22T14:57:30;1.73;;;1.30;;
9473;SDS011;8865;47.636;7.692;2023-07-22T14:59:56;1.67;;;1.42;;
9473;SDS011;8865;47.636;7.692;2023-07-22T15:02:23;1.45;;;1.30;;
9473;SDS011;8865;47.636;7.692;2023-07-22T15:04:49;1.73;;;1.38;;
9473;SDS011;8865;47.636;7.692;2023-07-22T15:07:15;1.40;;;1.30;;
9473;SDS011;8865;47.636;7.692;2023-07-22T15:09:41;1.30;;;1.20;;
9473;SDS011;8865;47.636;7.692;2023-07-22T15:12:07;1.42;;;1.33;;
9473;SDS011;8865;47.636;7.692;2023-07-22T15:14:34;2.20;;;1.30;;
9473;SDS011;8865;47.636;7.692;2023-07-22T15:17:01;1.45;;;1.35;;
9473;SDS011;8865;47.636;7.692;2023-07-22T15:19:27;1.70;;;1.30;;
9473;SDS011;8865;47.636;7.692;2023-07-22T15:21:53;1.40;;;1.30;;
9473;SDS011;8865;47.636;7.692;2023-07-22T15:24:20;1.40;;;1.30;;
9473;SDS011;8865;47.636;7.692;2023-07-22T15:26:48;2.22;;;1.42;;
9473;SDS011;8865;47.636;7.692;2023-07-22T15:29:14;1.17;;;1.02;;
9473;SDS011;8865;47.636;7.692;2023-07-22T15:31:40;1.30;;;1.20;;
9473;SDS011;8865;47.636;7.692;2023-07-22T15:34:06;1.40;;;1.30;;
9473;SDS011;8865;47.636;7.692;2023-07-22T15:36:32;2.05;;;1.27;;
9473;SDS011;8865;47.636;7.692;2023-07-22T15:38:58;1.88;;;1.20;;
9473;SDS011;8865;47.636;7.692;2023-07-22T15:41:24;1.45;;;1.25;;
9473;SDS011;8865;47.636;7.692;2023-07-22T15:43:50;1.25;;;1.15;;
9473;SDS011;8865;47.636;7.692;2023-07-22T15:46:16;1.55;;;1.45;;